Minneapolis, Minnesota
Traffic Map
Current Weather Conditions
Minneapolis, Minnesota
Few Clouds
Few Clouds
61°
Feels Like: 61°
Wind Chill: 61° Ceiling: Unl
Heat Index: 61° Visibility: 10mi
Dew Point: 41° Wind: 9mph
Humidity: 48% Direction: 250° (WSW)
Pressure: 29.88in Gusts: 0mph
Raw Report DataKMSP 061053Z 25008KT 10SM FEW300 16/05 A2988 RMK AO2 SLP114 T01610050
Traffic Incident Summary
Active as of:
Severity:
Category:
InformationThere was an issue retrieving the traffic information for this location. Please try a different location or try again shortly.
Advertisements
Track Severe Weather on mobile